sensor_id;sensor_type;location;lat;lon;timestamp;temperature;humidity
73477;DHT22;61713;51.034;13.756;2022-07-01T00:01:41;21.10;99.90
73477;DHT22;61713;51.034;13.756;2022-07-01T00:04:07;21.10;99.90
73477;DHT22;61713;51.034;13.756;2022-07-01T00:06:33;21.10;99.90
73477;DHT22;61713;51.034;13.756;2022-07-01T00:08:59;21.00;99.90
73477;DHT22;61713;51.034;13.756;2022-07-01T00:11:24;21.00;99.90
73477;DHT22;61713;51.034;13.756;2022-07-01T00:13:50;21.00;99.90
73477;DHT22;61713;51.034;13.756;2022-07-01T00:16:15;21.00;99.90
73477;DHT22;61713;51.034;13.756;2022-07-01T00:18:41;20.90;99.90
73477;DHT22;61713;51.034;13.756;2022-07-01T00:21:07;20.90;99.90
73477;DHT22;61713;51.034;13.756;2022-07-01T00:23:32;20.90;99.90
73477;DHT22;61713;51.034;13.756;2022-07-01T00:25:58;20.90;99.90
73477;DHT22;61713;51.034;13.756;2022-07-01T00:28:24;20.90;99.90
73477;DHT22;61713;51.034;13.756;2022-07-01T00:30:51;20.90;99.90
73477;DHT22;61713;51.034;13.756;2022-07-01T00:33:16;20.80;99.90
73477;DHT22;61713;51.034;13.756;2022-07-01T00:35:42;20.80;99.90
73477;DHT22;61713;51.034;13.756;2022-07-01T00:38:08;20.70;99.90
73477;DHT22;61713;51.034;13.756;2022-07-01T00:40:33;20.60;99.90
73477;DHT22;61713;51.034;13.756;2022-07-01T00:42:59;20.60;99.90
73477;DHT22;61713;51.034;13.756;2022-07-01T00:45:24;20.60;99.90
73477;DHT22;61713;51.034;13.756;2022-07-01T00:47:50;20.60;99.90
73477;DHT22;61713;51.034;13.756;2022-07-01T00:50:16;20.50;99.90
73477;DHT22;61713;51.034;13.756;2022-07-01T00:52:43;20.40;99.90
73477;DHT22;61713;51.034;13.756;2022-07-01T00:55:11;20.40;99.90
73477;DHT22;61713;51.034;13.756;2022-07-01T00:57:38;20.40;99.90
73477;DHT22;61713;51.034;13.756;2022-07-01T01:00:14;20.30;99.90
73477;DHT22;61713;51.034;13.756;2022-07-01T01:02:40;20.30;99.90
73477;DHT22;61713;51.034;13.756;2022-07-01T01:05:08;20.30;99.90
73477;DHT22;61713;51.034;13.756;2022-07-01T01:07:34;20.20;99.90
73477;DHT22;61713;51.034;13.756;2022-07-01T01:10:00;20.20;99.90
73477;DHT22;61713;51.034;13.756;2022-07-01T01:12:27;20.10;99.90
73477;DHT22;61713;51.034;13.756;2022-07-01T01:14:53;20.10;99.90
73477;DHT22;61713;51.034;13.756;2022-07-01T01:17:18;20.10;99.90
73477;DHT22;61713;51.034;13.756;2022-07-01T01:19:44;20.10;99.90
73477;DHT22;61713;51.034;13.756;2022-07-01T01:22:11;20.00;99.90
73477;DHT22;61713;51.034;13.756;2022-07-01T01:24:40;20.00;99.90
73477;DHT22;61713;51.034;13.756;2022-07-01T01:27:06;19.90;99.90
73477;DHT22;61713;51.034;13.756;2022-07-01T01:29:32;19.90;99.90
73477;DHT22;61713;51.034;13.756;2022-07-01T01:31:57;19.90;99.90
73477;DHT22;61713;51.034;13.756;2022-07-01T01:34:23;19.90;99.90
73477;DHT22;61713;51.034;13.756;2022-07-01T01:36:48;19.90;99.90
73477;DHT22;61713;51.034;13.756;2022-07-01T01:39:14;19.90;99.90
73477;DHT22;61713;51.034;13.756;2022-07-01T01:41:41;19.90;99.90
73477;DHT22;61713;51.034;13.756;2022-07-01T01:44:06;19.90;99.90
73477;DHT22;61713;51.034;13.756;2022-07-01T01:46:32;19.90;99.90
73477;DHT22;61713;51.034;13.756;2022-07-01T01:48:58;19.90;99.90
73477;DHT22;61713;51.034;13.756;2022-07-01T01:51:24;19.90;99.90
73477;DHT22;61713;51.034;13.756;2022-07-01T01:53:50;19.90;99.90
73477;DHT22;61713;51.034;13.756;2022-07-01T01:56:15;19.90;99.90
73477;DHT22;61713;51.034;13.756;2022-07-01T01:58:41;20.00;99.90
73477;DHT22;61713;51.034;13.756;2022-07-01T02:01:10;20.00;99.90
73477;DHT22;61713;51.034;13.756;2022-07-01T02:03:40;20.00;99.90
73477;DHT22;61713;51.034;13.756;2022-07-01T02:06:06;20.10;99.90
73477;DHT22;61713;51.034;13.756;2022-07-01T02:08:32;20.10;99.90
73477;DHT22;61713;51.034;13.756;2022-07-01T02:10:58;20.10;99.90
73477;DHT22;61713;51.034;13.756;2022-07-01T02:13:24;20.20;99.90
73477;DHT22;61713;51.034;13.756;2022-07-01T02:15:49;20.20;99.90
73477;DHT22;61713;51.034;13.756;2022-07-01T02:18:15;20.10;99.90
73477;DHT22;61713;51.034;13.756;2022-07-01T02:20:41;20.10;99.90
73477;DHT22;61713;51.034;13.756;2022-07-01T02:23:07;20.10;99.90
73477;DHT22;61713;51.034;13.756;2022-07-01T02:25:33;20.10;99.90
73477;DHT22;61713;51.034;13.756;2022-07-01T02:27:58;20.10;99.90
73477;DHT22;61713;51.034;13.756;2022-07-01T02:30:25;20.10;99.90
73477;DHT22;61713;51.034;13.756;2022-07-01T02:32:50;20.00;99.90
73477;DHT22;61713;51.034;13.756;2022-07-01T02:35:16;20.00;99.90
73477;DHT22;61713;51.034;13.756;2022-07-01T02:37:41;19.90;99.90
73477;DHT22;61713;51.034;13.756;2022-07-01T02:40:07;19.90;99.90
73477;DHT22;61713;51.034;13.756;2022-07-01T02:42:34;19.80;99.90
73477;DHT22;61713;51.034;13.756;2022-07-01T02:45:04;19.80;99.90
73477;DHT22;61713;51.034;13.756;2022-07-01T02:47:37;19.70;99.90
73477;DHT22;61713;51.034;13.756;2022-07-01T02:50:04;19.70;99.90
73477;DHT22;61713;51.034;13.756;2022-07-01T02:52:30;19.60;99.90
73477;DHT22;61713;51.034;13.756;2022-07-01T02:54:55;19.70;99.90
73477;DHT22;61713;51.034;13.756;2022-07-01T02:57:22;19.60;99.90
73477;DHT22;61713;51.034;13.756;2022-07-01T02:59:47;19.50;99.90
73477;DHT22;61713;51.034;13.756;2022-07-01T03:02:13;19.60;99.90
73477;DHT22;61713;51.034;13.756;2022-07-01T03:04:38;19.60;99.90
73477;DHT22;61713;51.034;13.756;2022-07-01T03:07:04;19.50;99.90
73477;DHT22;61713;51.034;13.756;2022-07-01T03:09:29;19.60;99.90
73477;DHT22;61713;51.034;13.756;2022-07-01T03:11:54;19.50;99.90
73477;DHT22;61713;51.034;13.756;2022-07-01T03:14:20;19.50;99.90
73477;DHT22;61713;51.034;13.756;2022-07-01T03:16:46;19.50;99.90
73477;DHT22;61713;51.034;13.756;2022-07-01T03:19:14;19.50;99.90
73477;DHT22;61713;51.034;13.756;2022-07-01T03:21:40;19.50;99.90
73477;DHT22;61713;51.034;13.756;2022-07-01T03:24:06;19.60;99.90
73477;DHT22;61713;51.034;13.756;2022-07-01T03:26:31;19.60;99.90
73477;DHT22;61713;51.034;13.756;2022-07-01T03:28:57;19.60;99.90
73477;DHT22;61713;51.034;13.756;2022-07-01T03:31:22;19.60;99.90
73477;DHT22;61713;51.034;13.756;2022-07-01T03:33:48;19.60;99.90
73477;DHT22;61713;51.034;13.756;2022-07-01T03:36:13;19.70;99.90
73477;DHT22;61713;51.034;13.756;2022-07-01T03:38:39;19.70;99.90
73477;DHT22;61713;51.034;13.756;2022-07-01T03:41:04;19.80;99.90
73477;DHT22;61713;51.034;13.756;2022-07-01T03:43:30;19.80;99.90
73477;DHT22;61713;51.034;13.756;2022-07-01T03:45:56;19.90;99.90
73477;DHT22;61713;51.034;13.756;2022-07-01T03:48:21;20.00;99.90
73477;DHT22;61713;51.034;13.756;2022-07-01T03:50:47;20.20;99.90
73477;DHT22;61713;51.034;13.756;2022-07-01T03:53:13;20.30;99.90
73477;DHT22;61713;51.034;13.756;2022-07-01T03:55:57;20.50;99.90
73477;DHT22;61713;51.034;13.756;2022-07-01T03:58:22;20.70;99.90
73477;DHT22;61713;51.034;13.756;2022-07-01T04:00:48;20.80;99.90
73477;DHT22;61713;51.034;13.756;2022-07-01T04:03:13;21.00;99.90
73477;DHT22;61713;51.034;13.756;2022-07-01T04:05:39;21.20;99.90
73477;DHT22;61713;51.034;13.756;2022-07-01T04:08:06;21.40;99.90
73477;DHT22;61713;51.034;13.756;2022-07-01T04:10:34;21.60;99.90
73477;DHT22;61713;51.034;13.756;2022-07-01T04:13:03;21.70;99.90
73477;DHT22;61713;51.034;13.756;2022-07-01T04:15:29;21.90;99.90
73477;DHT22;61713;51.034;13.756;2022-07-01T04:17:55;22.10;99.90
73477;DHT22;61713;51.034;13.756;2022-07-01T04:20:21;22.20;99.90
73477;DHT22;61713;51.034;13.756;2022-07-01T04:22:46;22.30;99.90
73477;DHT22;61713;51.034;13.756;2022-07-01T04:25:12;22.40;99.90
73477;DHT22;61713;51.034;13.756;2022-07-01T04:27:38;22.40;99.90
73477;DHT22;61713;51.034;13.756;2022-07-01T04:30:04;22.40;99.90
73477;DHT22;61713;51.034;13.756;2022-07-01T04:32:30;22.30;99.90
73477;DHT22;61713;51.034;13.756;2022-07-01T04:34:56;22.20;99.90
73477;DHT22;61713;51.034;13.756;2022-07-01T04:37:21;22.20;99.90
73477;DHT22;61713;51.034;13.756;2022-07-01T04:39:47;22.30;99.90
73477;DHT22;61713;51.034;13.756;2022-07-01T04:42:12;22.20;99.90
73477;DHT22;61713;51.034;13.756;2022-07-01T04:44:39;22.20;99.90
73477;DHT22;61713;51.034;13.756;2022-07-01T04:47:05;22.20;99.90
73477;DHT22;61713;51.034;13.756;2022-07-01T04:49:30;22.20;99.90
73477;DHT22;61713;51.034;13.756;2022-07-01T04:51:57;22.30;99.90
73477;DHT22;61713;51.034;13.756;2022-07-01T04:54:23;22.30;99.90
73477;DHT22;61713;51.034;13.756;2022-07-01T04:56:49;22.20;99.90
73477;DHT22;61713;51.034;13.756;2022-07-01T04:59:15;22.20;99.90
73477;DHT22;61713;51.034;13.756;2022-07-01T05:01:42;22.30;99.90
73477;DHT22;61713;51.034;13.756;2022-07-01T05:04:08;22.40;99.90
73477;DHT22;61713;51.034;13.756;2022-07-01T05:06:33;22.50;99.90
73477;DHT22;61713;51.034;13.756;2022-07-01T05:08:59;22.50;99.90
73477;DHT22;61713;51.034;13.756;2022-07-01T05:11:25;22.40;99.90
73477;DHT22;61713;51.034;13.756;2022-07-01T05:13:50;22.50;99.90
73477;DHT22;61713;51.034;13.756;2022-07-01T05:16:16;22.50;99.90
73477;DHT22;61713;51.034;13.756;2022-07-01T05:18:41;22.60;99.90
73477;DHT22;61713;51.034;13.756;2022-07-01T05:21:26;22.70;99.90
73477;DHT22;61713;51.034;13.756;2022-07-01T05:24:10;23.00;99.90
73477;DHT22;61713;51.034;13.756;2022-07-01T05:26:35;23.20;99.90
73477;DHT22;61713;51.034;13.756;2022-07-01T05:29:01;23.50;99.90
73477;DHT22;61713;51.034;13.756;2022-07-01T05:31:26;23.70;99.90
73477;DHT22;61713;51.034;13.756;2022-07-01T05:33:52;23.80;99.90
73477;DHT22;61713;51.034;13.756;2022-07-01T05:36:17;23.90;99.90
73477;DHT22;61713;51.034;13.756;2022-07-01T05:38:43;23.90;99.90
73477;DHT22;61713;51.034;13.756;2022-07-01T05:41:08;24.00;99.90
73477;DHT22;61713;51.034;13.756;2022-07-01T05:43:34;24.00;99.90
73477;DHT22;61713;51.034;13.756;2022-07-01T05:46:00;24.10;99.90
73477;DHT22;61713;51.034;13.756;2022-07-01T05:48:25;24.00;99.90
73477;DHT22;61713;51.034;13.756;2022-07-01T05:50:51;24.10;99.90
73477;DHT22;61713;51.034;13.756;2022-07-01T05:53:17;24.10;99.90
73477;DHT22;61713;51.034;13.756;2022-07-01T05:55:42;23.90;99.90
73477;DHT22;61713;51.034;13.756;2022-07-01T05:58:10;23.90;99.90
73477;DHT22;61713;51.034;13.756;2022-07-01T06:00:36;23.90;99.90
73477;DHT22;61713;51.034;13.756;2022-07-01T06:03:01;23.90;99.90
73477;DHT22;61713;51.034;13.756;2022-07-01T06:05:27;23.90;99.90
73477;DHT22;61713;51.034;13.756;2022-07-01T06:07:52;23.90;99.90
73477;DHT22;61713;51.034;13.756;2022-07-01T06:10:18;24.10;99.90
73477;DHT22;61713;51.034;13.756;2022-07-01T06:12:44;23.70;99.90
73477;DHT22;61713;51.034;13.756;2022-07-01T06:15:11;23.80;99.90
73477;DHT22;61713;51.034;13.756;2022-07-01T06:17:39;23.80;99.90
73477;DHT22;61713;51.034;13.756;2022-07-01T06:20:05;23.70;99.90
73477;DHT22;61713;51.034;13.756;2022-07-01T06:22:31;23.70;99.90
73477;DHT22;61713;51.034;13.756;2022-07-01T06:24:58;23.70;99.90
73477;DHT22;61713;51.034;13.756;2022-07-01T06:27:24;23.60;99.90
73477;DHT22;61713;51.034;13.756;2022-07-01T06:29:50;23.40;99.90
73477;DHT22;61713;51.034;13.756;2022-07-01T06:32:15;23.50;99.90
73477;DHT22;61713;51.034;13.756;2022-07-01T06:34:41;23.50;99.90
73477;DHT22;61713;51.034;13.756;2022-07-01T06:37:06;23.50;99.90
73477;DHT22;61713;51.034;13.756;2022-07-01T06:39:32;23.20;99.90
73477;DHT22;61713;51.034;13.756;2022-07-01T06:41:57;23.30;99.90
73477;DHT22;61713;51.034;13.756;2022-07-01T06:44:23;23.30;99.90
73477;DHT22;61713;51.034;13.756;2022-07-01T06:46:48;23.60;99.90
73477;DHT22;61713;51.034;13.756;2022-07-01T06:49:14;23.80;99.90
73477;DHT22;61713;51.034;13.756;2022-07-01T06:51:39;23.90;99.90
73477;DHT22;61713;51.034;13.756;2022-07-01T06:54:05;24.00;99.90
73477;DHT22;61713;51.034;13.756;2022-07-01T06:56:31;23.90;99.90
73477;DHT22;61713;51.034;13.756;2022-07-01T06:58:56;24.10;99.90
73477;DHT22;61713;51.034;13.756;2022-07-01T07:01:23;24.20;99.90
73477;DHT22;61713;51.034;13.756;2022-07-01T07:03:49;23.70;99.90
73477;DHT22;61713;51.034;13.756;2022-07-01T07:06:14;23.90;99.90
73477;DHT22;61713;51.034;13.756;2022-07-01T07:08:40;23.60;99.90
73477;DHT22;61713;51.034;13.756;2022-07-01T07:11:06;23.70;99.90
73477;DHT22;61713;51.034;13.756;2022-07-01T07:13:36;23.70;99.90
73477;DHT22;61713;51.034;13.756;2022-07-01T07:16:02;23.50;99.90
73477;DHT22;61713;51.034;13.756;2022-07-01T07:18:28;23.50;99.90
73477;DHT22;61713;51.034;13.756;2022-07-01T07:20:53;23.40;99.90
73477;DHT22;61713;51.034;13.756;2022-07-01T07:23:19;23.10;99.90
73477;DHT22;61713;51.034;13.756;2022-07-01T07:25:44;22.90;99.90
73477;DHT22;61713;51.034;13.756;2022-07-01T07:28:10;22.80;99.90
73477;DHT22;61713;51.034;13.756;2022-07-01T07:30:35;22.90;99.90
73477;DHT22;61713;51.034;13.756;2022-07-01T07:33:01;22.80;99.90
73477;DHT22;61713;51.034;13.756;2022-07-01T07:35:26;22.70;99.90
73477;DHT22;61713;51.034;13.756;2022-07-01T07:37:52;22.90;99.90
73477;DHT22;61713;51.034;13.756;2022-07-01T07:40:18;22.90;99.90
73477;DHT22;61713;51.034;13.756;2022-07-01T07:42:45;22.40;99.90
73477;DHT22;61713;51.034;13.756;2022-07-01T07:45:12;22.40;99.90
73477;DHT22;61713;51.034;13.756;2022-07-01T07:47:42;22.40;99.90
73477;DHT22;61713;51.034;13.756;2022-07-01T07:50:08;22.40;99.90
73477;DHT22;61713;51.034;13.756;2022-07-01T07:52:34;22.50;99.90
73477;DHT22;61713;51.034;13.756;2022-07-01T07:54:59;22.40;99.90
73477;DHT22;61713;51.034;13.756;2022-07-01T07:57:25;22.40;99.90
73477;DHT22;61713;51.034;13.756;2022-07-01T07:59:50;22.10;99.90
73477;DHT22;61713;51.034;13.756;2022-07-01T08:02:16;22.00;99.90
73477;DHT22;61713;51.034;13.756;2022-07-01T08:04:41;21.90;99.90
73477;DHT22;61713;51.034;13.756;2022-07-01T08:07:07;21.90;99.90
73477;DHT22;61713;51.034;13.756;2022-07-01T08:09:32;22.00;99.90
73477;DHT22;61713;51.034;13.756;2022-07-01T08:12:00;21.80;99.90
73477;DHT22;61713;51.034;13.756;2022-07-01T08:14:26;22.00;99.90
73477;DHT22;61713;51.034;13.756;2022-07-01T08:16:51;22.00;99.90
73477;DHT22;61713;51.034;13.756;2022-07-01T08:19:17;22.00;99.90
73477;DHT22;61713;51.034;13.756;2022-07-01T08:21:42;21.80;99.90
73477;DHT22;61713;51.034;13.756;2022-07-01T08:24:08;21.80;99.90
73477;DHT22;61713;51.034;13.756;2022-07-01T08:26:33;21.90;99.90
73477;DHT22;61713;51.034;13.756;2022-07-01T08:28:59;21.70;99.90
73477;DHT22;61713;51.034;13.756;2022-07-01T08:31:24;21.70;99.90
73477;DHT22;61713;51.034;13.756;2022-07-01T08:33:50;22.00;99.90
73477;DHT22;61713;51.034;13.756;2022-07-01T08:36:15;21.90;99.90
73477;DHT22;61713;51.034;13.756;2022-07-01T08:38:41;21.90;99.90
73477;DHT22;61713;51.034;13.756;2022-07-01T08:41:06;22.10;99.90
73477;DHT22;61713;51.034;13.756;2022-07-01T08:43:34;22.30;99.90
73477;DHT22;61713;51.034;13.756;2022-07-01T08:46:00;22.40;99.90
73477;DHT22;61713;51.034;13.756;2022-07-01T08:48:27;22.10;99.90
73477;DHT22;61713;51.034;13.756;2022-07-01T08:50:53;22.10;99.90
73477;DHT22;61713;51.034;13.756;2022-07-01T08:53:18;21.80;99.90
73477;DHT22;61713;51.034;13.756;2022-07-01T08:55:44;22.00;99.90
73477;DHT22;61713;51.034;13.756;2022-07-01T08:58:28;22.30;99.90
73477;DHT22;61713;51.034;13.756;2022-07-01T09:01:12;22.00;99.90
73477;DHT22;61713;51.034;13.756;2022-07-01T09:03:38;21.70;99.90
73477;DHT22;61713;51.034;13.756;2022-07-01T09:06:11;21.50;99.90
73477;DHT22;61713;51.034;13.756;2022-07-01T09:08:37;21.30;99.90
73477;DHT22;61713;51.034;13.756;2022-07-01T09:11:14;21.10;99.90
73477;DHT22;61713;51.034;13.756;2022-07-01T09:13:40;21.00;99.90
73477;DHT22;61713;51.034;13.756;2022-07-01T09:16:14;20.90;99.90
73477;DHT22;61713;51.034;13.756;2022-07-01T09:18:40;20.70;99.90
73477;DHT22;61713;51.034;13.756;2022-07-01T09:21:08;20.70;99.90
73477;DHT22;61713;51.034;13.756;2022-07-01T09:23:38;20.40;99.90
73477;DHT22;61713;51.034;13.756;2022-07-01T09:26:04;20.40;99.90
73477;DHT22;61713;51.034;13.756;2022-07-01T09:28:29;20.50;99.90
73477;DHT22;61713;51.034;13.756;2022-07-01T09:30:58;20.50;99.90
73477;DHT22;61713;51.034;13.756;2022-07-01T09:33:26;20.50;99.90
73477;DHT22;61713;51.034;13.756;2022-07-01T09:35:52;20.30;99.90
73477;DHT22;61713;51.034;13.756;2022-07-01T09:38:20;20.30;99.90
73477;DHT22;61713;51.034;13.756;2022-07-01T09:40:53;20.20;99.90
73477;DHT22;61713;51.034;13.756;2022-07-01T09:46:02;20.20;99.90
73477;DHT22;61713;51.034;13.756;2022-07-01T09:51:00;19.80;99.90
73477;DHT22;61713;51.034;13.756;2022-07-01T09:53:26;19.60;99.90
73477;DHT22;61713;51.034;13.756;2022-07-01T09:55:51;19.60;99.90
73477;DHT22;61713;51.034;13.756;2022-07-01T09:58:17;19.60;99.90
73477;DHT22;61713;51.034;13.756;2022-07-01T10:00:44;19.70;99.90
73477;DHT22;61713;51.034;13.756;2022-07-01T10:03:10;19.80;99.90
73477;DHT22;61713;51.034;13.756;2022-07-01T10:05:42;19.90;99.90
73477;DHT22;61713;51.034;13.756;2022-07-01T10:14:10;20.20;99.90
73477;DHT22;61713;51.034;13.756;2022-07-01T10:16:37;20.10;99.90
73477;DHT22;61713;51.034;13.756;2022-07-01T10:21:50;20.10;99.90
73477;DHT22;61713;51.034;13.756;2022-07-01T10:24:17;20.10;99.90
73477;DHT22;61713;51.034;13.756;2022-07-01T10:26:44;20.10;99.90
73477;DHT22;61713;51.034;13.756;2022-07-01T10:29:35;20.20;99.90
73477;DHT22;61713;51.034;13.756;2022-07-01T10:32:07;20.40;99.90
73477;DHT22;61713;51.034;13.756;2022-07-01T10:34:40;20.30;99.90
73477;DHT22;61713;51.034;13.756;2022-07-01T10:37:11;20.30;99.90
73477;DHT22;61713;51.034;13.756;2022-07-01T10:39:59;20.30;99.90
73477;DHT22;61713;51.034;13.756;2022-07-01T10:42:32;20.50;99.90
73477;DHT22;61713;51.034;13.756;2022-07-01T10:45:05;20.60;99.90
73477;DHT22;61713;51.034;13.756;2022-07-01T10:47:31;20.40;99.90
73477;DHT22;61713;51.034;13.756;2022-07-01T10:50:06;20.50;99.90
73477;DHT22;61713;51.034;13.756;2022-07-01T10:52:31;20.80;99.90
73477;DHT22;61713;51.034;13.756;2022-07-01T10:54:59;20.50;99.90
73477;DHT22;61713;51.034;13.756;2022-07-01T10:57:39;20.50;99.90
73477;DHT22;61713;51.034;13.756;2022-07-01T11:02:34;20.30;99.90
73477;DHT22;61713;51.034;13.756;2022-07-01T11:05:03;20.70;99.90
73477;DHT22;61713;51.034;13.756;2022-07-01T11:07:31;20.80;99.90
73477;DHT22;61713;51.034;13.756;2022-07-01T11:10:00;20.90;99.90
73477;DHT22;61713;51.034;13.756;2022-07-01T11:12:28;20.60;99.90
73477;DHT22;61713;51.034;13.756;2022-07-01T11:14:56;20.40;99.90
73477;DHT22;61713;51.034;13.756;2022-07-01T11:17:24;20.30;99.90
73477;DHT22;61713;51.034;13.756;2022-07-01T11:19:51;20.40;99.90
73477;DHT22;61713;51.034;13.756;2022-07-01T11:22:22;20.40;99.90
73477;DHT22;61713;51.034;13.756;2022-07-01T11:25:02;20.20;99.90
73477;DHT22;61713;51.034;13.756;2022-07-01T11:27:29;20.30;99.90
73477;DHT22;61713;51.034;13.756;2022-07-01T11:29:56;20.20;99.90
73477;DHT22;61713;51.034;13.756;2022-07-01T11:32:27;19.90;99.90
73477;DHT22;61713;51.034;13.756;2022-07-01T11:34:53;19.00;99.90
73477;DHT22;61713;51.034;13.756;2022-07-01T11:37:19;18.60;99.90
73477;DHT22;61713;51.034;13.756;2022-07-01T11:40:08;18.20;99.90
73477;DHT22;61713;51.034;13.756;2022-07-01T11:42:35;17.90;99.90
73477;DHT22;61713;51.034;13.756;2022-07-01T11:45:00;17.90;99.90
73477;DHT22;61713;51.034;13.756;2022-07-01T11:47:27;18.00;99.90
73477;DHT22;61713;51.034;13.756;2022-07-01T11:49:53;18.10;99.90
73477;DHT22;61713;51.034;13.756;2022-07-01T11:52:21;18.20;99.90
73477;DHT22;61713;51.034;13.756;2022-07-01T11:54:49;18.30;99.90
73477;DHT22;61713;51.034;13.756;2022-07-01T11:57:18;18.20;99.90
73477;DHT22;61713;51.034;13.756;2022-07-01T11:59:45;18.20;99.90
73477;DHT22;61713;51.034;13.756;2022-07-01T12:02:13;17.70;99.90
73477;DHT22;61713;51.034;13.756;2022-07-01T12:04:40;17.10;99.90
73477;DHT22;61713;51.034;13.756;2022-07-01T12:07:07;16.70;99.90
73477;DHT22;61713;51.034;13.756;2022-07-01T12:09:33;16.60;99.90
73477;DHT22;61713;51.034;13.756;2022-07-01T12:11:59;16.80;99.90
73477;DHT22;61713;51.034;13.756;2022-07-01T12:14:30;16.80;99.90
73477;DHT22;61713;51.034;13.756;2022-07-01T12:17:05;16.90;99.90
73477;DHT22;61713;51.034;13.756;2022-07-01T12:19:40;16.90;99.90
73477;DHT22;61713;51.034;13.756;2022-07-01T12:22:11;16.80;99.90
73477;DHT22;61713;51.034;13.756;2022-07-01T12:24:37;16.80;99.90
73477;DHT22;61713;51.034;13.756;2022-07-01T12:27:05;16.80;99.90
73477;DHT22;61713;51.034;13.756;2022-07-01T12:29:52;17.00;99.90
73477;DHT22;61713;51.034;13.756;2022-07-01T12:32:20;17.00;99.90
73477;DHT22;61713;51.034;13.756;2022-07-01T12:34:56;17.00;99.90
73477;DHT22;61713;51.034;13.756;2022-07-01T12:40:01;17.00;99.90
73477;DHT22;61713;51.034;13.756;2022-07-01T12:44:56;17.10;99.90
73477;DHT22;61713;51.034;13.756;2022-07-01T12:47:28;16.90;99.90
73477;DHT22;61713;51.034;13.756;2022-07-01T12:50:15;17.00;99.90
73477;DHT22;61713;51.034;13.756;2022-07-01T12:52:55;17.20;99.90
73477;DHT22;61713;51.034;13.756;2022-07-01T12:55:23;17.20;99.90
73477;DHT22;61713;51.034;13.756;2022-07-01T12:57:54;17.30;99.90
73477;DHT22;61713;51.034;13.756;2022-07-01T13:00:22;17.20;99.90
73477;DHT22;61713;51.034;13.756;2022-07-01T13:02:52;17.30;99.90
73477;DHT22;61713;51.034;13.756;2022-07-01T13:05:18;17.30;99.90
73477;DHT22;61713;51.034;13.756;2022-07-01T13:07:43;17.50;99.90
73477;DHT22;61713;51.034;13.756;2022-07-01T13:10:09;17.60;99.90
73477;DHT22;61713;51.034;13.756;2022-07-01T13:12:34;17.70;99.90
73477;DHT22;61713;51.034;13.756;2022-07-01T13:15:00;17.70;99.90
73477;DHT22;61713;51.034;13.756;2022-07-01T13:17:26;17.70;99.90
73477;DHT22;61713;51.034;13.756;2022-07-01T13:19:52;17.80;99.90
73477;DHT22;61713;51.034;13.756;2022-07-01T13:22:18;17.80;99.90
73477;DHT22;61713;51.034;13.756;2022-07-01T13:24:43;17.90;99.90
73477;DHT22;61713;51.034;13.756;2022-07-01T13:27:09;18.10;99.90
73477;DHT22;61713;51.034;13.756;2022-07-01T13:29:35;18.10;99.90
73477;DHT22;61713;51.034;13.756;2022-07-01T13:32:01;18.00;99.90
73477;DHT22;61713;51.034;13.756;2022-07-01T13:34:26;18.00;99.90
73477;DHT22;61713;51.034;13.756;2022-07-01T13:36:52;17.80;99.90
73477;DHT22;61713;51.034;13.756;2022-07-01T13:39:17;17.70;99.90
73477;DHT22;61713;51.034;13.756;2022-07-01T13:41:43;17.60;99.90
73477;DHT22;61713;51.034;13.756;2022-07-01T13:44:08;17.50;99.90
73477;DHT22;61713;51.034;13.756;2022-07-01T13:46:34;17.50;99.90
73477;DHT22;61713;51.034;13.756;2022-07-01T13:49:00;17.60;99.90
73477;DHT22;61713;51.034;13.756;2022-07-01T13:51:26;17.50;99.90
73477;DHT22;61713;51.034;13.756;2022-07-01T13:53:52;17.50;99.90
73477;DHT22;61713;51.034;13.756;2022-07-01T13:56:17;17.50;99.90
73477;DHT22;61713;51.034;13.756;2022-07-01T13:58:43;17.50;99.90
73477;DHT22;61713;51.034;13.756;2022-07-01T14:01:08;17.60;99.90
73477;DHT22;61713;51.034;13.756;2022-07-01T14:03:34;17.60;99.90
73477;DHT22;61713;51.034;13.756;2022-07-01T14:05:59;17.80;99.90
73477;DHT22;61713;51.034;13.756;2022-07-01T14:08:25;17.80;99.90
73477;DHT22;61713;51.034;13.756;2022-07-01T14:10:53;17.80;99.90
73477;DHT22;61713;51.034;13.756;2022-07-01T14:13:18;17.80;99.90
73477;DHT22;61713;51.034;13.756;2022-07-01T14:15:46;17.80;99.90
73477;DHT22;61713;51.034;13.756;2022-07-01T14:18:13;17.90;99.90
73477;DHT22;61713;51.034;13.756;2022-07-01T14:20:39;17.90;99.90
73477;DHT22;61713;51.034;13.756;2022-07-01T14:23:05;18.10;99.90
73477;DHT22;61713;51.034;13.756;2022-07-01T14:25:31;18.20;99.90
73477;DHT22;61713;51.034;13.756;2022-07-01T14:27:56;18.20;99.90
73477;DHT22;61713;51.034;13.756;2022-07-01T14:30:22;18.20;99.90
73477;DHT22;61713;51.034;13.756;2022-07-01T14:32:47;18.20;99.90
73477;DHT22;61713;51.034;13.756;2022-07-01T14:35:13;18.30;99.90
73477;DHT22;61713;51.034;13.756;2022-07-01T14:37:38;18.20;99.90
73477;DHT22;61713;51.034;13.756;2022-07-01T14:40:05;18.10;99.90
73477;DHT22;61713;51.034;13.756;2022-07-01T14:42:31;18.00;99.90
73477;DHT22;61713;51.034;13.756;2022-07-01T14:44:57;18.20;99.90
73477;DHT22;61713;51.034;13.756;2022-07-01T14:47:23;17.90;99.90
73477;DHT22;61713;51.034;13.756;2022-07-01T14:49:49;17.70;99.90
73477;DHT22;61713;51.034;13.756;2022-07-01T14:52:16;17.50;99.90
73477;DHT22;61713;51.034;13.756;2022-07-01T14:54:43;17.40;99.90
73477;DHT22;61713;51.034;13.756;2022-07-01T14:57:09;17.30;99.90
73477;DHT22;61713;51.034;13.756;2022-07-01T14:59:34;17.30;99.90
73477;DHT22;61713;51.034;13.756;2022-07-01T15:02:02;17.20;99.90
73477;DHT22;61713;51.034;13.756;2022-07-01T15:04:30;17.00;99.90
73477;DHT22;61713;51.034;13.756;2022-07-01T15:06:56;16.90;99.90
73477;DHT22;61713;51.034;13.756;2022-07-01T15:09:21;16.80;99.90
73477;DHT22;61713;51.034;13.756;2022-07-01T15:11:48;16.80;99.90
73477;DHT22;61713;51.034;13.756;2022-07-01T15:14:13;16.70;99.90
73477;DHT22;61713;51.034;13.756;2022-07-01T15:16:39;16.80;99.90
73477;DHT22;61713;51.034;13.756;2022-07-01T15:19:04;16.70;99.90
73477;DHT22;61713;51.034;13.756;2022-07-01T15:21:30;16.80;99.90
73477;DHT22;61713;51.034;13.756;2022-07-01T15:23:55;16.80;99.90
73477;DHT22;61713;51.034;13.756;2022-07-01T15:26:21;16.70;99.90
73477;DHT22;61713;51.034;13.756;2022-07-01T15:28:47;16.70;99.90
73477;DHT22;61713;51.034;13.756;2022-07-01T15:31:12;16.70;99.90
73477;DHT22;61713;51.034;13.756;2022-07-01T15:33:38;16.80;99.90
73477;DHT22;61713;51.034;13.756;2022-07-01T15:36:03;16.90;99.90